San Patricio — WCX6675 — position and weather

sailwx.info

Track history (hours):
 
Tides and Currents Weather Stations Pressure Air Temp Water Temp Dewpoint Dewpoint Depression Visibility Wind Speed Wind Dir Waves Ship Positions

San Patricio

Owner: BUFFALO MARINE SERVICE INC, HOUSTON, TX. More information available from US FCC via Universal Licensing System and Coast Guard Vessel Documentation Center.

Last reported at 2017-Sep-20 23:22 UTC. Time now 2017-Sep-22 10:16 UTC.
Position N 29°32' W 094°54'.

Length 30 m; draft 3.1 m.

Type: Tug. MMSI: 366941830.

Date/timePositionNaut miles runAvg speedWind from/ knotsBaromVisibWave heightAir tempDewpointWater temp
2017-Sep-20 23:22N 29°32' W 094°54'2 6.6
2017-Sep-20 23:00N 29°34' W 094°56'4 6.6
2017-Sep-20 22:26N 29°38' W 094°58'3 6.8
2017-Sep-20 22:00N 29°40' W 094°59'1 2.6
2017-Sep-20 21:27N 29°41' W 095°00'0 0.0
2017-Sep-20 20:59N 29°41' W 095°00'0 0.0
2017-Sep-20 20:29N 29°41' W 095°00'0 0.0
2017-Sep-20 19:53N 29°41' W 095°00'0 0.0
2017-Sep-20 19:30N 29°41' W 095°00'1 1.5
2017-Sep-20 19:00N 29°41' W 094°59'2 4.0
2017-Sep-20 18:30N 29°39' W 094°58'2 5.0
2017-Sep-20 18:00N 29°37' W 094°58'2 4.1
2017-Sep-20 17:30N 29°37' W 095°01'0 0.0
2017-Sep-20 17:00N 29°37' W 095°01'0 0.0
2017-Sep-20 16:30N 29°37' W 095°01'0 0.0
2017-Sep-20 16:00N 29°37' W 095°01'0 0.0
2017-Sep-20 15:30N 29°37' W 095°01'0 0.0
2017-Sep-20 15:00N 29°37' W 095°01'0 0.0
2017-Sep-20 14:00N 29°37' W 095°01'0 0.0
2017-Sep-20 13:30N 29°37' W 095°01'0 0.4
2017-Sep-20 13:00N 29°37' W 095°00'3 6.4
2017-Sep-20 12:30N 29°36' W 094°57'4 7.6
2017-Sep-20 12:00N 29°33' W 094°54'2 0.1
2017-Sep-19 22:29N 29°32' W 094°53'3 6.4
2017-Sep-19 22:00N 29°34' W 094°55'3 6.4
2017-Sep-19 21:30N 29°37' W 094°57'3 6.9
2017-Sep-19 21:00N 29°40' W 094°59'3 6.5
2017-Sep-19 20:30N 29°42' W 095°01'3 5.7
2017-Sep-19 20:00N 29°44' W 095°04'2 0.2
2017-Sep-19 07:57N 29°45' W 095°06'1 0.1
2017-Sep-18 23:16N 29°46' W 095°06'2 4.2
2017-Sep-18 22:49N 29°44' W 095°07'2 6.5
2017-Sep-18 22:30N 29°44' W 095°09'3 5.6
2017-Sep-18 22:00N 29°44' W 095°12'3 5.7
2017-Sep-18 21:29N 29°44' W 095°15'1 0.2
2017-Sep-18 14:33N 29°43' W 095°16'0 0.3
2017-Sep-18 14:27N 29°43' W 095°16'5 4.4
2017-Sep-18 13:22N 29°45' W 095°11'3 6.5
2017-Sep-18 12:57N 29°44' W 095°08'3 0.5
2017-Sep-18 07:17N 29°46' W 095°06'0 0.0
2017-Sep-17 14:24N 29°46' W 095°06'1 1.1
2017-Sep-17 13:36N 29°46' W 095°05'1 0.1
2017-Sep-17 04:27N 29°45' W 095°06'1 0.1
2017-Sep-16 10:08N 29°46' W 095°06'0 0.0
2017-Sep-16 09:39N 29°46' W 095°06'0 0.0
2017-Sep-16 09:29N 29°46' W 095°06'0 0.0
2017-Sep-16 08:59N 29°46' W 095°06'1 0.5
2017-Sep-16 07:28N 29°46' W 095°06'1 0.3
2017-Sep-16 05:05N 29°46' W 095°06'0 1.6
2017-Sep-16 04:57N 29°46' W 095°06'2 4.0
2017-Sep-16 04:30N 29°46' W 095°04'2 2.9
2017-Sep-16 03:52N 29°44' W 095°03'0 0.0
2017-Sep-16 03:29N 29°44' W 095°03'0 0.0
2017-Sep-16 02:45N 29°44' W 095°03'0 0.0
2017-Sep-16 02:28N 29°44' W 095°03'0 0.0
2017-Sep-16 02:00N 29°44' W 095°03'0 0.0
2017-Sep-15 23:26N 29°44' W 095°03'0 0.0
2017-Sep-15 22:59N 29°44' W 095°03'0 0.0
2017-Sep-15 22:24N 29°44' W 095°03'0 0.0
2017-Sep-15 21:58N 29°44' W 095°03'0 0.0
2017-Sep-15 20:52N 29°44' W 095°03'0 0.3
2017-Sep-15 20:31N 29°44' W 095°03'1 2.2
2017-Sep-15 19:58N 29°44' W 095°02'3 6.5
2017-Sep-15 19:31N 29°42' W 094°59'1 1.9
2017-Sep-15 19:00N 29°41' W 095°00'0 0.0
2017-Sep-15 18:17N 29°41' W 095°00'0 0.0
2017-Sep-15 18:01N 29°41' W 095°00'0 0.0
2017-Sep-15 17:30N 29°41' W 095°00'0 0.0
2017-Sep-15 16:58N 29°41' W 095°00'0 0.0
2017-Sep-15 16:29N 29°41' W 095°00'0 0.0
2017-Sep-15 15:57N 29°41' W 095°00'0 0.0
2017-Sep-15 15:22N 29°41' W 095°00'0 0.0
2017-Sep-15 15:00N 29°41' W 095°00'0 0.0
2017-Sep-15 14:27N 29°41' W 095°00'0 0.0
2017-Sep-15 14:01N 29°41' W 095°00'0 0.0
2017-Sep-15 13:24N 29°41' W 095°00'0 0.0
2017-Sep-15 13:01N 29°41' W 095°00'0 0.0
2017-Sep-15 12:30N 29°41' W 095°00'0 0.0
2017-Sep-15 12:01N 29°41' W 095°00'2 3.1
2017-Sep-15 11:31N 29°40' W 094°59'4 7.4
2017-Sep-15 11:01N 29°37' W 094°57'4 7.7
2017-Sep-15 10:31N 29°33' W 094°55'2 0.1
2017-Sep-14 13:29N 29°31' W 094°53'3 7.1
2017-Sep-14 13:00N 29°34' W 094°56'4 7.5
2017-Sep-14 12:30N 29°38' W 094°58'4 7.3
2017-Sep-14 12:00N 29°41' W 094°59'1 2.2
2017-Sep-14 11:29N 29°41' W 095°00'0 0.0
2017-Sep-14 10:44N 29°41' W 095°00'0 0.0
2017-Sep-14 10:27N 29°41' W 095°00'0 0.0
2017-Sep-14 09:59N 29°41' W 095°00'0 0.0
2017-Sep-14 09:29N 29°41' W 095°00'0 0.0
2017-Sep-14 08:59N 29°41' W 095°00'0 0.0
2017-Sep-14 08:30N 29°41' W 095°00'0 0.0
2017-Sep-14 08:00N 29°41' W 095°00'0 0.0
2017-Sep-14 07:27N 29°41' W 095°00'0 0.0
2017-Sep-14 07:00N 29°41' W 095°00'0 0.0
2017-Sep-14 06:27N 29°41' W 095°00'0 0.0
2017-Sep-14 06:00N 29°41' W 095°00'0 0.0
2017-Sep-14 05:30N 29°41' W 095°00'0 0.5
2017-Sep-14 05:00N 29°41' W 095°00'0 0.0
2017-Sep-14 04:30N 29°41' W 095°00'0 0.0
2017-Sep-14 03:59N 29°41' W 095°00'0 0.0
2017-Sep-14 03:30N 29°41' W 095°00'0 0.0
2017-Sep-14 03:00N 29°41' W 095°00'0 0.3
2017-Sep-14 02:30N 29°41' W 095°00'3 5.3
2017-Sep-14 02:00N 29°39' W 094°58'2 4.8
2017-Sep-14 01:30N 29°37' W 094°59'1 2.2
2017-Sep-14 01:00N 29°37' W 095°01'0 0.0
2017-Sep-14 00:30N 29°37' W 095°01'0 0.0
2017-Sep-14 00:00N 29°37' W 095°01'0 0.0
2017-Sep-13 23:30N 29°37' W 095°01'0 0.1
2017-Sep-13 23:00N 29°37' W 095°01'0 0.1
2017-Sep-13 22:30N 29°37' W 095°01'0 0.0
2017-Sep-13 22:00N 29°37' W 095°01'0 0.0
2017-Sep-13 21:30N 29°37' W 095°01'0 0.0
2017-Sep-13 21:00N 29°37' W 095°01'0 0.0
2017-Sep-13 20:30N 29°37' W 095°01'0 0.0
2017-Sep-13 20:00N 29°37' W 095°01'0 0.0
2017-Sep-13 19:30N 29°37' W 095°01'0 0.0
2017-Sep-13 19:00N 29°37' W 095°01'0 0.0
2017-Sep-13 18:30N 29°37' W 095°01'0 0.0
2017-Sep-13 18:00N 29°37' W 095°01'0 0.5
2017-Sep-13 17:30N 29°37' W 095°01'0 0.9
2017-Sep-13 17:00N 29°37' W 095°01'0 0.0
2017-Sep-13 16:30N 29°37' W 095°01'1 3.0
2017-Sep-13 16:00N 29°37' W 094°60'2 4.4
2017-Sep-13 15:30N 29°39' W 094°58'4 7.2
2017-Sep-13 14:57N 29°42' W 095°00'3 6.7
2017-Sep-13 14:28N 29°44' W 095°03'5 0.3
2017-Sep-12 23:05N 29°44' W 095°09'1 7.6
2017-Sep-12 23:00N 29°44' W 095°09'5 0.3
2017-Sep-12 07:25N 29°43' W 095°14'3 5.4
2017-Sep-12 06:50N 29°45' W 095°11'2 6.6
2017-Sep-12 06:30N 29°44' W 095°09'  
Track history (hours):
 
Tides and Currents Weather Stations Pressure Air Temp Water Temp Dewpoint Dewpoint Depression Visibility Wind Speed Wind Dir Waves Ship Positions

San Patricio

Owner: BUFFALO MARINE SERVICE INC, HOUSTON, TX. More information available from US FCC via Universal Licensing System and Coast Guard Vessel Documentation Center.

Last reported at 2017-Sep-20 23:22 UTC. Time now 2017-Sep-22 10:16 UTC.
Position N 29°32' W 094°54'.

Length 30 m; draft 3.1 m.

Type: Tug. MMSI: 366941830.

Date/timePositionNaut miles runAvg speedWind from/ knotsBaromVisibWave heightAir tempDewpointWater temp
2017-Sep-20 23:22N 29°32' W 094°54'2 6.6
2017-Sep-20 23:00N 29°34' W 094°56'4 6.6
2017-Sep-20 22:26N 29°38' W 094°58'3 6.8
2017-Sep-20 22:00N 29°40' W 094°59'1 2.6
2017-Sep-20 21:27N 29°41' W 095°00'0 0.0
2017-Sep-20 20:59N 29°41' W 095°00'0 0.0
2017-Sep-20 20:29N 29°41' W 095°00'0 0.0
2017-Sep-20 19:53N 29°41' W 095°00'0 0.0
2017-Sep-20 19:30N 29°41' W 095°00'1 1.5
2017-Sep-20 19:00N 29°41' W 094°59'2 4.0
2017-Sep-20 18:30N 29°39' W 094°58'2 5.0
2017-Sep-20 18:00N 29°37' W 094°58'2 4.1
2017-Sep-20 17:30N 29°37' W 095°01'0 0.0
2017-Sep-20 17:00N 29°37' W 095°01'0 0.0
2017-Sep-20 16:30N 29°37' W 095°01'0 0.0
2017-Sep-20 16:00N 29°37' W 095°01'0 0.0
2017-Sep-20 15:30N 29°37' W 095°01'0 0.0
2017-Sep-20 15:00N 29°37' W 095°01'0 0.0
2017-Sep-20 14:00N 29°37' W 095°01'0 0.0
2017-Sep-20 13:30N 29°37' W 095°01'0 0.4
2017-Sep-20 13:00N 29°37' W 095°00'3 6.4
2017-Sep-20 12:30N 29°36' W 094°57'4 7.6
2017-Sep-20 12:00N 29°33' W 094°54'2 0.1
2017-Sep-19 22:29N 29°32' W 094°53'3 6.4
2017-Sep-19 22:00N 29°34' W 094°55'3 6.4
2017-Sep-19 21:30N 29°37' W 094°57'3 6.9
2017-Sep-19 21:00N 29°40' W 094°59'3 6.5
2017-Sep-19 20:30N 29°42' W 095°01'3 5.7
2017-Sep-19 20:00N 29°44' W 095°04'2 0.2
2017-Sep-19 07:57N 29°45' W 095°06'1 0.1
2017-Sep-18 23:16N 29°46' W 095°06'2 4.2
2017-Sep-18 22:49N 29°44' W 095°07'2 6.5
2017-Sep-18 22:30N 29°44' W 095°09'3 5.6
2017-Sep-18 22:00N 29°44' W 095°12'3 5.7
2017-Sep-18 21:29N 29°44' W 095°15'1 0.2
2017-Sep-18 14:33N 29°43' W 095°16'0 0.3
2017-Sep-18 14:27N 29°43' W 095°16'5 4.4
2017-Sep-18 13:22N 29°45' W 095°11'3 6.5
2017-Sep-18 12:57N 29°44' W 095°08'3 0.5
2017-Sep-18 07:17N 29°46' W 095°06'0 0.0
2017-Sep-17 14:24N 29°46' W 095°06'1 1.1
2017-Sep-17 13:36N 29°46' W 095°05'1 0.1
2017-Sep-17 04:27N 29°45' W 095°06'1 0.1
2017-Sep-16 10:08N 29°46' W 095°06'0 0.0
2017-Sep-16 09:39N 29°46' W 095°06'0 0.0
2017-Sep-16 09:29N 29°46' W 095°06'0 0.0
2017-Sep-16 08:59N 29°46' W 095°06'1 0.5
2017-Sep-16 07:28N 29°46' W 095°06'1 0.3
2017-Sep-16 05:05N 29°46' W 095°06'0 1.6
2017-Sep-16 04:57N 29°46' W 095°06'2 4.0
2017-Sep-16 04:30N 29°46' W 095°04'2 2.9
2017-Sep-16 03:52N 29°44' W 095°03'0 0.0
2017-Sep-16 03:29N 29°44' W 095°03'0 0.0
2017-Sep-16 02:45N 29°44' W 095°03'0 0.0
2017-Sep-16 02:28N 29°44' W 095°03'0 0.0
2017-Sep-16 02:00N 29°44' W 095°03'0 0.0
2017-Sep-15 23:26N 29°44' W 095°03'0 0.0
2017-Sep-15 22:59N 29°44' W 095°03'0 0.0
2017-Sep-15 22:24N 29°44' W 095°03'0 0.0
2017-Sep-15 21:58N 29°44' W 095°03'0 0.0
2017-Sep-15 20:52N 29°44' W 095°03'0 0.3
2017-Sep-15 20:31N 29°44' W 095°03'1 2.2
2017-Sep-15 19:58N 29°44' W 095°02'3 6.5
2017-Sep-15 19:31N 29°42' W 094°59'1 1.9
2017-Sep-15 19:00N 29°41' W 095°00'0 0.0
2017-Sep-15 18:17N 29°41' W 095°00'0 0.0
2017-Sep-15 18:01N 29°41' W 095°00'0 0.0
2017-Sep-15 17:30N 29°41' W 095°00'0 0.0
2017-Sep-15 16:58N 29°41' W 095°00'0 0.0
2017-Sep-15 16:29N 29°41' W 095°00'0 0.0
2017-Sep-15 15:57N 29°41' W 095°00'0 0.0
2017-Sep-15 15:22N 29°41' W 095°00'0 0.0
2017-Sep-15 15:00N 29°41' W 095°00'0 0.0
2017-Sep-15 14:27N 29°41' W 095°00'0 0.0
2017-Sep-15 14:01N 29°41' W 095°00'0 0.0
2017-Sep-15 13:24N 29°41' W 095°00'0 0.0
2017-Sep-15 13:01N 29°41' W 095°00'0 0.0
2017-Sep-15 12:30N 29°41' W 095°00'0 0.0
2017-Sep-15 12:01N 29°41' W 095°00'2 3.1
2017-Sep-15 11:31N 29°40' W 094°59'4 7.4
2017-Sep-15 11:01N 29°37' W 094°57'4 7.7
2017-Sep-15 10:31N 29°33' W 094°55'2 0.1
2017-Sep-14 13:29N 29°31' W 094°53'3 7.1
2017-Sep-14 13:00N 29°34' W 094°56'4 7.5
2017-Sep-14 12:30N 29°38' W 094°58'4 7.3
2017-Sep-14 12:00N 29°41' W 094°59'1 2.2
2017-Sep-14 11:29N 29°41' W 095°00'0 0.0
2017-Sep-14 10:44N 29°41' W 095°00'0 0.0
2017-Sep-14 10:27N 29°41' W 095°00'0 0.0
2017-Sep-14 09:59N 29°41' W 095°00'0 0.0
2017-Sep-14 09:29N 29°41' W 095°00'0 0.0
2017-Sep-14 08:59N 29°41' W 095°00'0 0.0
2017-Sep-14 08:30N 29°41' W 095°00'0 0.0
2017-Sep-14 08:00N 29°41' W 095°00'0 0.0
2017-Sep-14 07:27N 29°41' W 095°00'0 0.0
2017-Sep-14 07:00N 29°41' W 095°00'0 0.0
2017-Sep-14 06:27N 29°41' W 095°00'0 0.0
2017-Sep-14 06:00N 29°41' W 095°00'0 0.0
2017-Sep-14 05:30N 29°41' W 095°00'0 0.5
2017-Sep-14 05:00N 29°41' W 095°00'0 0.0
2017-Sep-14 04:30N 29°41' W 095°00'0 0.0
2017-Sep-14 03:59N 29°41' W 095°00'0 0.0
2017-Sep-14 03:30N 29°41' W 095°00'0 0.0
2017-Sep-14 03:00N 29°41' W 095°00'0 0.3
2017-Sep-14 02:30N 29°41' W 095°00'3 5.3
2017-Sep-14 02:00N 29°39' W 094°58'2 4.8
2017-Sep-14 01:30N 29°37' W 094°59'1 2.2
2017-Sep-14 01:00N 29°37' W 095°01'0 0.0
2017-Sep-14 00:30N 29°37' W 095°01'0 0.0
2017-Sep-14 00:00N 29°37' W 095°01'0 0.0
2017-Sep-13 23:30N 29°37' W 095°01'0 0.1
2017-Sep-13 23:00N 29°37' W 095°01'0 0.1
2017-Sep-13 22:30N 29°37' W 095°01'0 0.0
2017-Sep-13 22:00N 29°37' W 095°01'0 0.0
2017-Sep-13 21:30N 29°37' W 095°01'0 0.0
2017-Sep-13 21:00N 29°37' W 095°01'0 0.0
2017-Sep-13 20:30N 29°37' W 095°01'0 0.0
2017-Sep-13 20:00N 29°37' W 095°01'0 0.0
2017-Sep-13 19:30N 29°37' W 095°01'0 0.0
2017-Sep-13 19:00N 29°37' W 095°01'0 0.0
2017-Sep-13 18:30N 29°37' W 095°01'0 0.0
2017-Sep-13 18:00N 29°37' W 095°01'0 0.5
2017-Sep-13 17:30N 29°37' W 095°01'0 0.9
2017-Sep-13 17:00N 29°37' W 095°01'0 0.0
2017-Sep-13 16:30N 29°37' W 095°01'1 3.0
2017-Sep-13 16:00N 29°37' W 094°60'2 4.4
2017-Sep-13 15:30N 29°39' W 094°58'4 7.2
2017-Sep-13 14:57N 29°42' W 095°00'3 6.7
2017-Sep-13 14:28N 29°44' W 095°03'5 0.3
2017-Sep-12 23:05N 29°44' W 095°09'1 7.6
2017-Sep-12 23:00N 29°44' W 095°09'5 0.3
2017-Sep-12 07:25N 29°43' W 095°14'3 5.4
2017-Sep-12 06:50N 29°45' W 095°11'2 6.6
2017-Sep-12 06:30N 29°44' W 095°09'  

Dump ship's entire track history